createdAt,value
2019-05-11T00:01:11.086Z,12.87
2019-05-11T00:03:39.546Z,11.33
2019-05-11T00:06:08.151Z,12.10
2019-05-11T00:08:36.627Z,12.20
2019-05-11T00:11:05.141Z,14.80
2019-05-11T00:13:33.583Z,15.17
2019-05-11T00:16:02.191Z,12.80
2019-05-11T00:18:30.710Z,14.10
2019-05-11T00:20:59.196Z,14.40
2019-05-11T00:23:27.661Z,14.10
2019-05-11T00:25:56.153Z,14.60
2019-05-11T00:28:24.671Z,13.03
2019-05-11T00:30:53.179Z,15.50
2019-05-11T00:33:21.622Z,14.80
2019-05-11T00:35:50.077Z,16.27
2019-05-11T00:38:18.615Z,15.53
2019-05-11T00:40:47.198Z,16.10
2019-05-11T00:43:15.728Z,17.73
2019-05-11T00:45:44.193Z,13.80
2019-05-11T00:48:12.652Z,17.30
2019-05-11T00:50:41.304Z,16.63
2019-05-11T00:53:09.938Z,16.93
2019-05-11T00:55:38.384Z,17.30
2019-05-11T00:58:07.604Z,16.83
2019-05-11T01:00:36.146Z,15.23
2019-05-11T01:03:05.166Z,16.13
2019-05-11T01:05:33.700Z,16.40
2019-05-11T01:08:02.161Z,17.10
2019-05-11T01:10:41.658Z,17.73
2019-05-11T01:13:00.789Z,19.50
2019-05-11T01:15:29.269Z,16.03
2019-05-11T01:17:57.733Z,17.30
2019-05-11T01:20:26.181Z,18.03
2019-05-11T01:22:54.660Z,15.90
2019-05-11T01:25:23.146Z,15.90
2019-05-11T01:27:51.624Z,15.47
2019-05-11T01:30:20.216Z,16.97
2019-05-11T01:32:48.704Z,19.73
2019-05-11T01:35:17.360Z,17.53
2019-05-11T01:37:45.852Z,20.43
2019-05-11T01:40:14.874Z,22.40
2019-05-11T01:42:43.396Z,20.40
2019-05-11T01:45:12.123Z,19.57
2019-05-11T01:47:40.648Z,16.57
2019-05-11T01:50:09.730Z,16.10
2019-05-11T01:52:38.204Z,18.30
2019-05-11T01:55:07.350Z,15.80
2019-05-11T01:57:35.875Z,14.90
2019-05-11T02:00:09.619Z,15.93
2019-05-11T02:02:38.092Z,15.80
2019-05-11T02:05:23.934Z,14.53
2019-05-11T02:07:52.490Z,17.27
2019-05-11T02:10:20.998Z,15.87
2019-05-11T02:12:49.454Z,18.30
2019-05-11T02:15:17.910Z,18.23
2019-05-11T02:17:46.373Z,17.20
2019-05-11T02:20:15.072Z,17.93
2019-05-11T02:22:43.534Z,18.20
2019-05-11T02:25:12.939Z,18.70
2019-05-11T02:27:41.399Z,16.20
2019-05-11T02:30:10.224Z,16.77
2019-05-11T02:32:38.733Z,17.97
2019-05-11T02:35:07.826Z,15.80
2019-05-11T02:37:36.334Z,15.80
2019-05-11T02:40:07.879Z,17.47
2019-05-11T02:42:36.542Z,14.00
2019-05-11T02:45:08.601Z,14.13
2019-05-11T02:47:37.165Z,17.43
2019-05-11T02:50:06.212Z,16.40
2019-05-11T02:52:35.392Z,16.00
2019-05-11T02:55:04.480Z,16.97
2019-05-11T02:57:32.947Z,15.87
2019-05-11T03:00:01.428Z,18.53
2019-05-11T03:02:29.961Z,18.80
2019-05-11T03:04:58.414Z,17.87
2019-05-11T03:07:26.874Z,19.67
2019-05-11T03:09:55.435Z,18.33
2019-05-11T03:12:23.888Z,17.07
2019-05-11T03:14:52.375Z,17.50
2019-05-11T03:17:22.490Z,17.50
2019-05-11T03:19:51.016Z,16.80
2019-05-11T03:22:21.200Z,16.17
2019-05-11T03:24:49.743Z,18.47
2019-05-11T03:27:18.398Z,15.87
2019-05-11T03:29:46.924Z,18.27
2019-05-11T03:32:15.484Z,18.80
2019-05-11T03:34:44.014Z,20.40
2019-05-11T03:37:12.606Z,20.30
2019-05-11T03:39:41.052Z,18.87
2019-05-11T03:42:14.848Z,19.57
2019-05-11T03:44:39.867Z,18.50
2019-05-11T03:47:08.321Z,18.13
2019-05-11T03:49:36.828Z,16.73
2019-05-11T03:52:05.289Z,17.90
2019-05-11T03:54:35.132Z,19.33
2019-05-11T03:57:05.342Z,17.27
2019-05-11T03:59:33.807Z,17.40
2019-05-11T04:02:02.285Z,15.90
2019-05-11T04:04:30.813Z,17.17
2019-05-11T04:06:59.370Z,17.93
2019-05-11T04:09:27.837Z,17.47
2019-05-11T04:11:56.370Z,16.10
2019-05-11T04:14:24.915Z,14.67
2019-05-11T04:16:53.406Z,13.70
2019-05-11T04:19:21.977Z,13.40
2019-05-11T04:21:50.444Z,14.73
2019-05-11T04:24:18.994Z,14.40
2019-05-11T04:26:47.461Z,17.00
2019-05-11T04:29:16.003Z,17.77
2019-05-11T04:31:44.528Z,16.53
2019-05-11T04:34:13.115Z,15.93
2019-05-11T04:36:41.559Z,15.10
2019-05-11T04:39:10.070Z,15.27
2019-05-11T04:41:38.556Z,16.03
2019-05-11T04:44:07.098Z,14.43
2019-05-11T04:46:37.266Z,15.60
2019-05-11T04:49:05.844Z,14.60
2019-05-11T04:51:34.308Z,15.67
2019-05-11T04:54:02.850Z,14.65
2019-05-11T04:56:31.399Z,15.63
2019-05-11T04:58:59.933Z,15.03
2019-05-11T05:01:28.386Z,12.60
2019-05-11T05:04:12.238Z,13.93
2019-05-11T05:06:27.034Z,13.87
2019-05-11T05:08:58.130Z,13.77
2019-05-11T05:11:30.603Z,13.77
2019-05-11T05:13:55.958Z,13.73
2019-05-11T05:16:24.484Z,12.70
2019-05-11T05:18:54.064Z,13.97
2019-05-11T05:21:22.639Z,13.50
2019-05-11T05:23:51.125Z,13.30
2019-05-11T05:26:19.607Z,13.13
2019-05-11T05:28:48.156Z,13.17
2019-05-11T05:31:16.611Z,12.27
2019-05-11T14:56:54.240Z,4.10
2019-05-11T14:59:22.774Z,4.20
2019-05-11T15:01:51.246Z,4.80
2019-05-11T15:04:19.839Z,4.65
2019-05-11T15:06:48.989Z,5.15
2019-05-11T15:09:18.303Z,4.70
2019-05-11T15:11:48.057Z,4.40
2019-05-11T15:14:19.748Z,5.00
2019-05-11T15:16:48.720Z,4.70
2019-05-11T15:19:18.516Z,5.00
2019-05-11T15:21:47.619Z,5.30
2019-05-11T15:24:18.285Z,4.70
2019-05-11T15:26:48.432Z,4.90
2019-05-11T15:29:18.447Z,5.30
2019-05-11T15:31:48.606Z,5.55
2019-05-11T15:34:18.474Z,6.30
2019-05-11T15:36:48.972Z,5.95
2019-05-11T15:39:18.378Z,5.90
2019-05-11T15:41:48.033Z,6.47
2019-05-11T15:44:18.338Z,7.00
2019-05-11T15:46:48.005Z,5.60
2019-05-11T15:49:17.966Z,5.40
2019-05-11T15:51:48.875Z,5.50
2019-05-11T15:54:18.561Z,4.95
2019-05-11T15:56:47.298Z,5.33
2019-05-11T15:59:15.761Z,5.40
2019-05-11T16:01:44.351Z,6.10
2019-05-11T16:04:12.824Z,6.35
2019-05-11T16:06:41.305Z,6.00
2019-05-11T16:09:09.835Z,6.40
2019-05-11T16:11:38.994Z,6.50
2019-05-11T16:14:08.676Z,7.07
2019-05-11T16:16:38.975Z,6.60
2019-05-11T16:19:14.815Z,6.50
2019-05-11T16:21:39.794Z,5.87
2019-05-11T16:24:10.278Z,6.57
2019-05-11T16:26:38.859Z,6.80
2019-05-11T16:29:11.027Z,6.50
2019-05-11T16:31:38.037Z,6.10
2019-05-11T16:34:08.004Z,6.50
2019-05-11T16:36:38.893Z,6.50
2019-05-11T16:39:10.509Z,6.40
2019-05-11T16:41:38.882Z,6.07
2019-05-11T16:44:07.902Z,6.03
2019-05-11T16:46:38.954Z,7.00
2019-05-11T16:49:10.767Z,7.00
2019-05-11T16:51:39.529Z,7.07
2019-05-11T16:54:08.243Z,6.93
2019-05-11T16:56:38.495Z,7.10
2019-05-11T16:59:08.682Z,6.70
2019-05-11T17:01:37.883Z,7.53
2019-05-11T17:04:06.945Z,7.37
2019-05-11T17:06:38.521Z,7.17
2019-05-11T17:09:08.892Z,7.70
2019-05-11T17:11:38.443Z,8.20
2019-05-11T17:14:08.253Z,7.50
2019-05-11T17:16:38.712Z,8.37
2019-05-11T17:19:08.149Z,7.60
2019-05-11T17:21:38.309Z,8.00
2019-05-11T17:24:07.046Z,8.50
2019-05-11T17:26:35.530Z,7.70
2019-05-11T17:29:04.064Z,8.60
2019-05-11T17:31:32.676Z,8.83
2019-05-11T17:34:01.146Z,9.73
2019-05-11T17:36:29.651Z,9.40
2019-05-11T17:38:58.343Z,11.73
2019-05-11T17:41:27.927Z,10.67
2019-05-11T17:43:58.405Z,11.70
2019-05-11T17:46:27.907Z,11.87
2019-05-11T17:48:56.564Z,10.87
2019-05-11T17:51:25.309Z,12.23
2019-05-11T17:53:54.110Z,15.30
2019-05-11T17:56:22.808Z,16.03
2019-05-11T17:58:51.370Z,16.00
2019-05-11T18:01:19.895Z,17.00
2019-05-11T18:03:48.515Z,17.37
2019-05-11T18:06:18.411Z,18.70
2019-05-11T18:08:47.831Z,19.00
2019-05-11T18:11:18.536Z,19.73
2019-05-11T18:13:48.254Z,18.77
2019-05-11T18:16:21.196Z,19.87
2019-05-11T18:18:49.744Z,21.27
2019-05-11T18:21:19.482Z,22.40
2019-05-11T18:23:48.173Z,20.70
2019-05-11T18:26:18.134Z,19.45
2019-05-11T18:28:48.253Z,21.10
2019-05-11T18:31:18.106Z,20.75
2019-05-11T18:33:48.703Z,19.47
2019-05-11T18:36:18.281Z,19.00
2019-05-11T18:38:48.685Z,18.53
2019-05-11T18:41:17.786Z,20.50
2019-05-11T18:43:48.379Z,20.70
2019-05-11T18:46:16.693Z,20.93
2019-05-11T18:48:46.028Z,20.43
2019-05-11T18:51:14.685Z,20.83
2019-05-11T18:53:43.273Z,19.73
2019-05-11T18:56:11.921Z,20.80
2019-05-11T18:58:40.497Z,20.30
2019-05-11T19:01:09.781Z,22.30
2019-05-11T19:06:08.913Z,20.20
2019-05-11T19:08:39.197Z,21.37
2019-05-11T19:11:09.207Z,20.70
2019-05-11T19:13:38.683Z,19.50
2019-05-11T19:16:08.604Z,19.73
2019-05-11T19:18:38.748Z,22.80
2019-05-11T19:21:09.139Z,21.23
2019-05-11T19:23:39.929Z,20.20
2019-05-11T19:26:08.496Z,20.70
2019-05-11T19:28:38.501Z,21.57
2019-05-11T19:31:08.362Z,20.70
2019-05-11T19:33:38.193Z,20.27
2019-05-11T19:36:07.925Z,21.77
2019-05-11T19:38:38.357Z,22.00
2019-05-11T19:41:08.038Z,20.23
2019-05-11T19:43:39.252Z,19.25
2019-05-11T19:46:10.137Z,15.63
2019-05-11T19:48:39.732Z,15.93
2019-05-11T19:51:11.790Z,13.25
2019-05-11T19:53:38.800Z,9.80
2019-05-11T19:56:11.951Z,9.67
2019-05-11T19:58:42.438Z,10.60
2019-05-11T20:01:21.023Z,10.30
2019-05-11T20:06:13.784Z,7.73
2019-05-11T20:08:53.109Z,7.87
2019-05-11T20:11:24.207Z,6.47
2019-05-11T20:13:58.805Z,7.20
2019-05-11T20:16:26.752Z,6.27
2019-05-11T20:18:57.803Z,6.90
2019-05-11T20:21:28.846Z,7.70
2019-05-11T20:23:57.783Z,7.77
2019-05-11T20:28:58.627Z,5.40
2019-05-11T20:31:27.739Z,5.13
2019-05-11T20:33:56.510Z,4.87
2019-05-11T20:36:25.192Z,3.87
2019-05-11T20:41:21.613Z,2.70
2019-05-11T20:43:51.372Z,1.97
2019-05-11T20:46:20.068Z,2.00
2019-05-11T20:48:48.626Z,1.70
2019-05-11T20:51:32.818Z,2.33
2019-05-11T20:53:48.940Z,2.57
2019-05-11T20:56:19.328Z,2.83
2019-05-11T20:58:59.305Z,3.55
2019-05-11T21:01:28.761Z,2.75
2019-05-11T21:03:58.449Z,3.65
2019-05-11T21:06:29.525Z,4.00
2019-05-11T21:08:59.127Z,3.70
2019-05-11T21:11:27.761Z,4.20
2019-05-11T21:13:56.274Z,4.30
2019-05-11T21:16:24.936Z,3.60
2019-05-11T21:18:53.478Z,4.60
2019-05-11T21:21:22.017Z,4.53
2019-05-11T21:23:50.528Z,5.10
2019-05-11T21:26:19.067Z,4.83
2019-05-11T21:28:48.673Z,5.13
2019-05-11T21:31:19.042Z,5.40
2019-05-11T21:33:47.575Z,5.67
2019-05-11T21:36:18.035Z,6.40
2019-05-11T21:38:48.233Z,5.67
2019-05-11T21:41:16.504Z,6.27
2019-05-11T21:43:45.519Z,5.07
2019-05-11T21:46:14.133Z,5.53
2019-05-11T21:48:42.753Z,4.87
2019-05-11T21:51:11.269Z,5.03
2019-05-11T21:53:39.733Z,4.17
2019-05-11T21:56:08.378Z,2.77
2019-05-11T21:58:37.796Z,4.70
2019-05-11T22:01:06.935Z,4.63
2019-05-11T22:03:35.622Z,5.10
2019-05-11T22:06:04.681Z,5.13
2019-05-11T22:08:33.309Z,5.43
2019-05-11T22:11:02.141Z,6.50
2019-05-11T22:13:30.693Z,7.40
2019-05-11T22:15:59.307Z,6.90
2019-05-11T22:18:31.235Z,7.50
2019-05-11T22:20:58.607Z,7.30
2019-05-11T22:23:28.188Z,4.60
2019-05-11T22:25:58.682Z,5.93
2019-05-11T22:28:28.461Z,6.00
2019-05-11T22:30:57.310Z,5.07
2019-05-11T22:33:28.218Z,6.80
2019-05-11T22:35:58.567Z,5.60
2019-05-11T22:38:30.041Z,7.47
2019-05-11T22:40:58.292Z,7.50
2019-05-11T22:43:28.538Z,7.23
2019-05-11T22:45:58.180Z,8.00
2019-05-11T22:48:26.890Z,4.57
2019-05-11T22:50:55.409Z,8.50
2019-05-11T22:53:23.862Z,9.60
2019-05-11T22:55:52.366Z,10.00
2019-05-11T22:58:20.994Z,11.03
2019-05-11T23:00:49.580Z,8.53
2019-05-11T23:03:19.175Z,8.47
2019-05-11T23:05:48.499Z,8.50
2019-05-11T23:08:18.159Z,9.20
2019-05-11T23:10:48.573Z,11.30
2019-05-11T23:15:47.766Z,10.57
2019-05-11T23:18:18.268Z,9.80
2019-05-11T23:20:47.890Z,6.20
2019-05-11T23:25:46.389Z,10.40
2019-05-11T23:28:14.879Z,9.67
2019-05-11T23:30:43.477Z,12.33
2019-05-11T23:33:11.990Z,11.50
2019-05-11T23:35:40.502Z,11.35
2019-05-11T23:38:09.082Z,11.20
2019-05-11T23:40:38.153Z,11.10
2019-05-11T23:43:08.773Z,12.87
2019-05-11T23:45:38.210Z,11.73
2019-05-11T23:48:07.129Z,12.30
2019-05-11T23:50:38.362Z,9.05
2019-05-11T23:53:09.684Z,11.47
2019-05-11T23:55:37.988Z,11.90
2019-05-11T23:58:08.177Z,11.40
